Time;durP1;ratioP1;P1;durP2;ratioP2;P2;SDS_P1;SDS_P2;PMS_P1;PMS_P2;Temp;Humidity;BMP_temperature;BMP_pressure;BME280_temperature;BME280_humidity;BME280_pressure;Samples;Min_cycle;Max_cycle;Signal;HPM_P1;HPM_P2
2024/04/08 00:01:01;;;;;;;;;;;16.10;1.00;;;;;;5518146;25;20644;-83
2024/04/08 00:03:27;;;;;;;;;;;16.00;1.00;;;;;;5517635;26;20007;-82
2024/04/08 00:05:52;;;;;;;;;;;15.90;1.00;;;;;;5518349;26;19935;-83
2024/04/08 00:08:18;;;;;;;;;;;15.90;1.00;;;;;;5485277;26;19935;-83
2024/04/08 00:10:43;;;;;;;;;;;15.90;1.00;;;;;;5520105;26;19934;-82
2024/04/08 00:13:09;;;;;;;;;;;15.90;1.00;;;;;;5525163;26;19935;-83
2024/04/08 00:15:34;;;;;;;;;;;15.90;1.00;;;;;;5489318;26;20400;-83
2024/04/08 00:18:00;;;;;;;;;;;15.90;1.00;;;;;;5482202;26;19947;-83
2024/04/08 00:20:25;;;;;;;;;;;16.00;1.00;;;;;;5517254;25;19927;-85
2024/04/08 00:22:51;;;;;;;;;;;16.00;1.00;;;;;;5527889;25;19956;-82
2024/04/08 00:25:17;;;;;;;;;;;16.10;1.00;;;;;;5523601;25;19928;-84
2024/04/08 00:27:43;;;;;;;;;;;16.10;1.00;;;;;;5523880;25;20003;-83
2024/04/08 00:30:09;;;;;;;;;;;16.10;1.00;;;;;;5490957;26;19935;-83
2024/04/08 00:32:34;;;;;;;;;;;16.10;1.00;;;;;;5520779;26;19949;-83
2024/04/08 00:35:00;;;;;;;;;;;16.10;1.00;;;;;;5522148;26;19995;-83
2024/04/08 00:37:25;;;;;;;;;;;16.10;1.00;;;;;;5516960;26;19934;-83
2024/04/08 00:39:50;;;;;;;;;;;16.10;1.00;;;;;;5518488;25;20504;-83
2024/04/08 00:42:16;;;;;;;;;;;16.10;1.00;;;;;;5516049;26;19935;-83
2024/04/08 00:44:42;;;;;;;;;;;16.10;1.00;;;;;;5520665;26;19931;-84
2024/04/08 00:47:08;;;;;;;;;;;16.00;1.00;;;;;;5520511;26;19934;-84
2024/04/08 00:49:33;;;;;;;;;;;16.00;1.00;;;;;;5514191;26;19936;-83
2024/04/08 00:51:59;;;;;;;;;;;16.00;1.00;;;;;;5517306;25;19934;-83
2024/04/08 00:54:25;;;;;;;;;;;15.90;1.00;;;;;;5518057;25;19973;-83
2024/04/08 00:56:51;;;;;;;;;;;15.90;1.00;;;;;;5530254;26;19995;-84
2024/04/08 00:59:18;;;;;;;;;;;15.90;1.00;;;;;;5500473;26;19952;-83
2024/04/08 01:01:44;;;;;;;;;;;15.90;1.00;;;;;;5524302;26;19931;-84
2024/04/08 01:04:10;;;;;;;;;;;15.90;1.00;;;;;;5525480;26;19976;-84
2024/04/08 01:06:35;;;;;;;;;;;16.00;1.00;;;;;;5529073;25;19932;-84
2024/04/08 01:09:01;;;;;;;;;;;15.90;1.00;;;;;;5530565;26;19999;-83
2024/04/08 01:11:27;;;;;;;;;;;15.90;1.00;;;;;;5514997;25;19934;-83
2024/04/08 01:13:53;;;;;;;;;;;15.90;1.00;;;;;;5506884;26;20294;-83
2024/04/08 01:16:18;;;;;;;;;;;15.90;1.00;;;;;;5509068;25;19936;-83
2024/04/08 01:18:44;;;;;;;;;;;15.90;1.00;;;;;;5480870;26;19927;-83
2024/04/08 01:21:09;;;;;;;;;;;15.80;1.00;;;;;;5516403;26;19956;-84
2024/04/08 01:23:44;;;;;;;;;;;15.70;1.00;;;;;;5531132;26;19927;-84
2024/04/08 01:26:09;;;;;;;;;;;15.70;1.00;;;;;;5497861;26;19931;-83
2024/04/08 01:28:36;;;;;;;;;;;15.70;1.00;;;;;;5530129;25;20008;-83
2024/04/08 01:31:02;;;;;;;;;;;15.70;1.00;;;;;;5531086;26;19938;-83
2024/04/08 01:33:27;;;;;;;;;;;15.60;1.00;;;;;;5500503;26;19995;-83
2024/04/08 01:36:04;;;;;;;;;;;15.60;1.00;;;;;;5531408;26;19959;-83
2024/04/08 01:38:30;;;;;;;;;;;15.60;1.00;;;;;;5523639;26;19936;-84
2024/04/08 01:40:55;;;;;;;;;;;15.60;1.00;;;;;;5525744;26;19935;-83
2024/04/08 01:43:21;;;;;;;;;;;15.50;1.00;;;;;;5527329;26;19934;-82
2024/04/08 01:45:47;;;;;;;;;;;15.40;1.00;;;;;;5521186;26;19974;-83
2024/04/08 01:48:12;;;;;;;;;;;15.30;1.00;;;;;;5475258;26;21462;-83
2024/04/08 01:50:38;;;;;;;;;;;15.20;1.00;;;;;;5518674;25;19935;-82
2024/04/08 01:53:04;;;;;;;;;;;15.20;1.00;;;;;;5485847;26;19931;-83
2024/04/08 01:55:29;;;;;;;;;;;15.20;1.00;;;;;;5512822;26;19940;-82
2024/04/08 01:57:57;;;;;;;;;;;15.10;1.00;;;;;;5519945;25;19931;-82
2024/04/08 02:00:22;;;;;;;;;;;15.10;1.00;;;;;;5483394;26;19927;-82
2024/04/08 02:02:48;;;;;;;;;;;15.10;1.00;;;;;;5519418;25;20043;-82
2024/04/08 02:05:14;;;;;;;;;;;15.10;1.00;;;;;;5519947;25;19927;-82
2024/04/08 02:07:39;;;;;;;;;;;15.10;1.00;;;;;;5521096;26;19972;-82
2024/04/08 02:10:05;;;;;;;;;;;15.10;1.00;;;;;;5521225;26;19931;-82
2024/04/08 02:12:31;;;;;;;;;;;15.20;1.00;;;;;;5512529;26;19928;-83
2024/04/08 02:14:56;;;;;;;;;;;15.20;1.00;;;;;;5475346;26;19935;-83
2024/04/08 02:17:21;;;;;;;;;;;15.30;1.00;;;;;;5477969;26;20336;-83
2024/04/08 02:19:47;;;;;;;;;;;15.40;1.00;;;;;;5489840;26;19972;-83
2024/04/08 02:22:12;;;;;;;;;;;15.40;1.00;;;;;;5517013;25;20014;-83
2024/04/08 02:24:38;;;;;;;;;;;15.40;1.00;;;;;;5522268;25;19927;-82
2024/04/08 02:27:03;;;;;;;;;;;15.50;1.00;;;;;;5486454;26;20286;-83
2024/04/08 02:29:31;;;;;;;;;;;15.50;1.00;;;;;;5519327;26;19943;-82
2024/04/08 02:31:57;;;;;;;;;;;15.60;1.00;;;;;;5518269;26;19927;-83
2024/04/08 02:34:22;;;;;;;;;;;15.60;1.00;;;;;;5500367;26;19940;-83
2024/04/08 02:36:48;;;;;;;;;;;15.60;1.00;;;;;;5530029;25;19951;-83
2024/04/08 02:39:13;;;;;;;;;;;15.60;1.00;;;;;;5534570;25;19934;-82
2024/04/08 02:41:39;;;;;;;;;;;15.60;1.00;;;;;;5526509;25;19939;-83
2024/04/08 02:44:04;;;;;;;;;;;15.60;1.00;;;;;;5500589;26;19934;-83
2024/04/08 02:46:30;;;;;;;;;;;15.50;1.00;;;;;;5526890;26;19934;-83
2024/04/08 02:48:55;;;;;;;;;;;15.50;1.00;;;;;;5503068;26;20366;-83
2024/04/08 02:51:21;;;;;;;;;;;15.50;1.00;;;;;;5531861;26;19928;-83
2024/04/08 02:53:46;;;;;;;;;;;15.40;1.00;;;;;;5495263;26;19935;-83
2024/04/08 02:56:12;;;;;;;;;;;15.30;1.00;;;;;;5492988;26;19939;-83
2024/04/08 02:58:37;;;;;;;;;;;15.30;1.00;;;;;;5533299;26;20449;-83
2024/04/08 03:01:07;;;;;;;;;;;15.20;1.00;;;;;;5503207;26;19980;-83
2024/04/08 03:03:33;;;;;;;;;;;15.10;1.00;;;;;;5505612;26;19935;-83
2024/04/08 03:06:05;;;;;;;;;;;15.10;1.00;;;;;;5537467;26;19999;-83
2024/04/08 03:08:31;;;;;;;;;;;15.00;1.00;;;;;;5503244;25;19957;-82
2024/04/08 03:10:57;;;;;;;;;;;15.00;1.00;;;;;;5528992;26;19932;-81
2024/04/08 03:13:23;;;;;;;;;;;14.90;1.00;;;;;;5525638;25;20054;-83
2024/04/08 03:15:55;;;;;;;;;;;14.90;1.00;;;;;;5496460;26;20393;-82
2024/04/08 03:18:21;;;;;;;;;;;14.90;1.00;;;;;;5518233;25;19927;-82
2024/04/08 03:20:53;;;;;;;;;;;14.90;1.00;;;;;;5490214;26;19950;-83
2024/04/08 03:23:19;;;;;;;;;;;15.00;1.00;;;;;;5518261;25;19935;-83
2024/04/08 03:25:44;;;;;;;;;;;14.90;1.00;;;;;;5493613;26;19955;-82
2024/04/08 03:28:12;;;;;;;;;;;14.90;1.00;;;;;;5518315;26;20289;-84
2024/04/08 03:30:37;;;;;;;;;;;14.80;1.00;;;;;;5517301;25;20636;-84
2024/04/08 03:33:03;;;;;;;;;;;14.80;1.00;;;;;;5481294;26;19935;-84
2024/04/08 03:35:28;;;;;;;;;;;14.80;1.00;;;;;;5521023;26;20366;-84
2024/04/08 03:37:54;;;;;;;;;;;14.80;1.00;;;;;;5524527;26;19927;-84
2024/04/08 03:40:23;;;;;;;;;;;14.80;1.00;;;;;;5491556;26;19927;-84
2024/04/08 03:42:49;;;;;;;;;;;14.80;1.00;;;;;;5450866;21;19937;-84
2024/04/08 03:45:15;;;;;;;;;;;14.80;1.00;;;;;;5351092;26;19930;-84
2024/04/08 03:47:40;;;;;;;;;;;14.70;1.00;;;;;;5377604;26;20003;-82
2024/04/08 03:50:06;;;;;;;;;;;14.70;1.00;;;;;;5371211;26;19942;-84
2024/04/08 03:52:31;;;;;;;;;;;14.70;2.10;;;;;;5363403;26;19944;-82
2024/04/08 03:54:57;;;;;;;;;;;14.80;2.80;;;;;;5350416;26;19942;-83
2024/04/08 03:57:23;;;;;;;;;;;14.90;1.00;;;;;;5352243;26;19930;-84
2024/04/08 03:59:48;;;;;;;;;;;14.90;1.00;;;;;;5347447;26;19940;-84
2024/04/08 04:02:14;;;;;;;;;;;14.90;1.00;;;;;;5357537;26;19945;-83
2024/04/08 04:04:39;;;;;;;;;;;15.00;1.00;;;;;;5349318;26;20023;-84
2024/04/08 04:07:05;;;;;;;;;;;15.00;1.00;;;;;;5351442;26;19933;-84
2024/04/08 04:09:30;;;;;;;;;;;15.10;1.00;;;;;;5359008;26;20368;-83
2024/04/08 04:11:56;;;;;;;;;;;15.10;1.00;;;;;;5353322;26;19930;-84
2024/04/08 04:14:21;;;;;;;;;;;15.10;1.00;;;;;;5348902;26;19978;-84
2024/04/08 04:16:47;;;;;;;;;;;15.10;1.00;;;;;;5352202;26;19930;-84
2024/04/08 04:19:13;;;;;;;;;;;15.10;1.00;;;;;;5354137;26;20381;-84
2024/04/08 04:21:39;;;;;;;;;;;15.10;1.00;;;;;;5355544;26;19941;-84
2024/04/08 04:24:04;;;;;;;;;;;15.10;1.00;;;;;;5354568;26;19978;-84
2024/04/08 04:26:30;;;;;;;;;;;15.00;1.00;;;;;;5349860;26;20422;-81
2024/04/08 04:28:55;;;;;;;;;;;15.10;1.00;;;;;;5361948;26;19930;-81
2024/04/08 04:31:21;;;;;;;;;;;15.10;1.00;;;;;;5356949;26;20624;-81
2024/04/08 04:33:46;;;;;;;;;;;15.10;1.00;;;;;;5350078;26;19929;-82
2024/04/08 04:36:12;;;;;;;;;;;15.20;1.00;;;;;;5352794;26;20015;-84
2024/04/08 04:38:37;;;;;;;;;;;15.20;1.00;;;;;;5349643;26;20364;-82
2024/04/08 04:41:04;;;;;;;;;;;15.20;1.00;;;;;;5353871;26;19929;-81
2024/04/08 04:43:29;;;;;;;;;;;15.20;1.00;;;;;;5353282;26;19934;-81
2024/04/08 04:45:55;;;;;;;;;;;15.20;1.00;;;;;;5346617;26;19979;-82
2024/04/08 04:48:21;;;;;;;;;;;15.20;1.00;;;;;;5357342;26;19934;-81
2024/04/08 04:50:46;;;;;;;;;;;15.20;1.00;;;;;;5344645;26;19930;-83
2024/04/08 04:53:12;;;;;;;;;;;15.20;1.00;;;;;;5347101;26;19954;-83
2024/04/08 04:55:37;;;;;;;;;;;15.20;1.00;;;;;;5351164;26;20368;-82
2024/04/08 04:58:03;;;;;;;;;;;15.10;1.00;;;;;;5358888;26;19930;-81
2024/04/08 05:00:31;;;;;;;;;;;15.10;1.00;;;;;;5356466;26;19930;-82
2024/04/08 05:02:58;;;;;;;;;;;15.20;1.00;;;;;;5355414;26;19941;-82
2024/04/08 05:05:23;;;;;;;;;;;15.20;1.00;;;;;;5345598;26;19950;-82
2024/04/08 05:07:49;;;;;;;;;;;15.10;1.00;;;;;;5365103;26;20359;-82
2024/04/08 05:10:14;;;;;;;;;;;15.10;1.00;;;;;;5374775;26;19937;-81
2024/04/08 05:12:39;;;;;;;;;;;15.10;1.00;;;;;;5362929;26;20426;-83
2024/04/08 05:15:05;;;;;;;;;;;15.10;1.00;;;;;;5356570;26;20002;-83
2024/04/08 05:17:31;;;;;;;;;;;15.10;1.00;;;;;;5393805;26;20386;-82
2024/04/08 05:20:01;;;;;;;;;;;15.10;1.00;;;;;;5371354;26;19929;-82
2024/04/08 05:22:28;;;;;;;;;;;15.10;1.00;;;;;;5357906;26;19930;-80
2024/04/08 05:24:54;;;;;;;;;;;15.10;1.00;;;;;;5364145;26;19977;-84
2024/04/08 05:27:19;;;;;;;;;;;15.10;1.00;;;;;;5357582;26;19961;-82
2024/04/08 05:29:45;;;;;;;;;;;15.10;1.00;;;;;;5362654;26;20015;-82
2024/04/08 05:32:10;;;;;;;;;;;15.20;1.00;;;;;;5361288;26;20425;-83
2024/04/08 05:34:36;;;;;;;;;;;15.20;1.00;;;;;;5365772;26;19930;-81
2024/04/08 05:37:01;;;;;;;;;;;15.20;1.00;;;;;;5349006;26;19943;-82
2024/04/08 05:39:27;;;;;;;;;;;15.30;1.00;;;;;;5348626;26;20424;-80
2024/04/08 05:41:52;;;;;;;;;;;15.30;1.00;;;;;;5348549;26;19929;-82
2024/04/08 05:44:18;;;;;;;;;;;15.30;1.00;;;;;;5350916;26;20024;-80
2024/04/08 05:46:43;;;;;;;;;;;15.30;1.00;;;;;;5352529;26;19942;-82
2024/04/08 05:49:09;;;;;;;;;;;15.40;1.00;;;;;;5352052;26;19937;-82
2024/04/08 05:51:34;;;;;;;;;;;15.40;1.00;;;;;;5350611;26;19962;-82
2024/04/08 05:54:00;;;;;;;;;;;15.50;1.00;;;;;;5349320;26;20004;-82
2024/04/08 05:56:25;;;;;;;;;;;15.50;1.00;;;;;;5345552;26;19937;-83
2024/04/08 05:58:51;;;;;;;;;;;15.60;1.00;;;;;;5378862;26;19937;-82
2024/04/08 06:01:16;;;;;;;;;;;16.20;1.00;;;;;;5360471;26;20464;-84
2024/04/08 06:03:42;;;;;;;;;;;19.10;1.00;;;;;;5369055;26;20605;-83
2024/04/08 06:06:07;;;;;;;;;;;22.80;1.00;;;;;;5359590;26;19937;-85
2024/04/08 06:08:33;;;;;;;;;;;26.30;1.00;;;;;;5382074;26;19930;-83
2024/04/08 06:11:02;;;;;;;;;;;28.70;99.90;;;;;;5371042;26;19937;-85
2024/04/08 06:13:30;;;;;;;;;;;30.80;99.90;;;;;;5348586;26;19965;-85
2024/04/08 06:15:56;;;;;;;;;;;32.60;99.90;;;;;;5357289;26;19938;-85
2024/04/08 06:18:22;;;;;;;;;;;34.20;99.90;;;;;;5352696;26;19929;-84
2024/04/08 06:20:57;;;;;;;;;;;35.70;99.90;;;;;;5348746;26;19930;-85
2024/04/08 06:23:23;;;;;;;;;;;36.70;99.90;;;;;;5342580;26;19940;-85
2024/04/08 06:26:01;;;;;;;;;;;37.40;99.90;;;;;;5355111;26;19930;-85
2024/04/08 06:28:26;;;;;;;;;;;38.10;99.90;;;;;;5355525;26;19930;-86
2024/04/08 06:30:52;;;;;;;;;;;38.00;99.90;;;;;;5355077;26;19929;-84
2024/04/08 06:33:17;;;;;;;;;;;37.20;99.90;;;;;;5353228;26;20450;-84
2024/04/08 06:35:46;;;;;;;;;;;36.20;99.90;;;;;;5357510;26;19936;-85
2024/04/08 06:38:13;;;;;;;;;;;35.10;99.90;;;;;;5355438;26;20592;-83
2024/04/08 06:40:42;;;;;;;;;;;33.50;99.90;;;;;;5349937;26;19945;-85
2024/04/08 06:43:07;;;;;;;;;;;32.60;99.90;;;;;;5362821;26;19945;-85
2024/04/08 06:45:33;;;;;;;;;;;32.40;99.90;;;;;;5384608;26;19933;-85
2024/04/08 06:47:58;;;;;;;;;;;31.60;99.90;;;;;;5351739;26;19965;-85
2024/04/08 06:50:24;;;;;;;;;;;32.00;99.90;;;;;;5358922;26;20492;-85
2024/04/08 06:52:49;;;;;;;;;;;32.40;99.90;;;;;;5353734;26;19938;-85
2024/04/08 06:55:16;;;;;;;;;;;32.80;99.90;;;;;;5354060;26;19933;-86
2024/04/08 06:57:42;;;;;;;;;;;32.30;99.90;;;;;;5360064;26;19929;-86
2024/04/08 07:00:09;;;;;;;;;;;32.10;99.90;;;;;;5352194;26;20020;-84
2024/04/08 07:02:35;;;;;;;;;;;33.20;99.90;;;;;;5358319;26;19937;-86
2024/04/08 07:05:01;;;;;;;;;;;34.40;99.90;;;;;;5366588;26;19929;-85
2024/04/08 07:07:27;;;;;;;;;;;35.20;99.90;;;;;;5377969;26;19956;-85
2024/04/08 07:09:53;;;;;;;;;;;35.40;99.90;;;;;;5380553;26;20292;-85
2024/04/08 07:12:18;;;;;;;;;;;35.40;99.90;;;;;;5380769;26;19929;-86
2024/04/08 07:14:43;;;;;;;;;;;34.70;99.90;;;;;;5380922;26;20257;-84
2024/04/08 07:17:09;;;;;;;;;;;34.30;99.90;;;;;;5380105;26;19930;-84
2024/04/08 07:19:34;;;;;;;;;;;32.40;99.90;;;;;;5363426;26;20260;-85
2024/04/08 07:22:00;;;;;;;;;;;30.90;99.90;;;;;;5384909;26;19945;-84
2024/04/08 07:24:25;;;;;;;;;;;30.20;99.90;;;;;;5384343;26;19958;-85
2024/04/08 07:26:51;;;;;;;;;;;29.20;99.90;;;;;;5373948;26;19929;-84
2024/04/08 07:29:17;;;;;;;;;;;28.30;99.90;;;;;;5384835;26;19937;-85
2024/04/08 07:31:42;;;;;;;;;;;28.80;99.90;;;;;;5380623;26;19941;-84
2024/04/08 07:34:08;;;;;;;;;;;31.60;99.90;;;;;;5382661;26;19941;-85
2024/04/08 07:36:33;;;;;;;;;;;34.10;99.90;;;;;;5381168;26;19945;-86
2024/04/08 07:38:59;;;;;;;;;;;36.20;99.90;;;;;;5382110;26;19937;-84
2024/04/08 07:41:24;;;;;;;;;;;36.70;99.90;;;;;;5372585;26;19930;-85
2024/04/08 07:43:50;;;;;;;;;;;36.80;99.90;;;;;;5370723;26;19938;-85
2024/04/08 07:46:15;;;;;;;;;;;36.80;99.90;;;;;;5403282;26;19930;-85
2024/04/08 07:48:41;;;;;;;;;;;35.80;99.90;;;;;;5380508;26;19957;-85
2024/04/08 07:51:06;;;;;;;;;;;35.70;99.90;;;;;;5377276;26;19933;-86
2024/04/08 07:53:32;;;;;;;;;;;36.30;99.90;;;;;;5382039;26;19936;-85
2024/04/08 07:55:59;;;;;;;;;;;36.40;99.90;;;;;;5380208;26;20383;-85
2024/04/08 07:58:26;;;;;;;;;;;36.80;99.90;;;;;;5380304;26;20334;-85
2024/04/08 08:01:00;;;;;;;;;;;36.70;99.90;;;;;;5377645;26;19969;-84
2024/04/08 08:03:26;;;;;;;;;;;38.10;99.90;;;;;;5378196;26;19936;-86
2024/04/08 08:05:55;;;;;;;;;;;39.30;99.90;;;;;;5362433;26;19937;-85
2024/04/08 08:08:20;;;;;;;;;;;40.40;99.90;;;;;;5377748;26;19936;-86
2024/04/08 08:10:46;;;;;;;;;;;40.60;99.90;;;;;;5379086;26;19937;-85
2024/04/08 08:13:11;;;;;;;;;;;40.70;99.90;;;;;;5381422;26;20272;-87
2024/04/08 08:15:37;;;;;;;;;;;41.00;99.90;;;;;;5382365;26;19929;-86
2024/04/08 08:18:02;;;;;;;;;;;41.30;99.90;;;;;;5381031;26;19941;-85
2024/04/08 08:20:28;;;;;;;;;;;42.20;99.90;;;;;;5371434;26;19934;-86
2024/04/08 08:22:56;;;;;;;;;;;42.90;99.90;;;;;;5346663;26;19945;-86
2024/04/08 08:25:22;;;;;;;;;;;43.00;99.90;;;;;;5361717;26;19957;-86
2024/04/08 08:27:48;;;;;;;;;;;42.60;99.90;;;;;;5357672;26;20019;-85
2024/04/08 08:30:13;;;;;;;;;;;41.80;99.90;;;;;;5363549;26;19938;-86
2024/04/08 08:32:39;;;;;;;;;;;40.80;99.90;;;;;;5363629;26;20049;-87
2024/04/08 08:35:04;;;;;;;;;;;39.50;99.90;;;;;;5361892;26;19930;-85
2024/04/08 08:37:30;;;;;;;;;;;39.30;99.90;;;;;;5363970;26;19937;-85
2024/04/08 08:39:55;;;;;;;;;;;40.50;99.90;;;;;;5357071;26;19937;-86
2024/04/08 08:42:22;;;;;;;;;;;40.70;99.90;;;;;;5356481;26;19936;-85
2024/04/08 08:44:54;;;;;;;;;;;40.80;99.90;;;;;;5354690;26;19998;-85
2024/04/08 08:47:20;;;;;;;;;;;40.90;99.90;;;;;;5363131;26;19937;-86
2024/04/08 08:49:46;;;;;;;;;;;40.70;99.90;;;;;;5350227;26;19930;-85
2024/04/08 08:52:12;;;;;;;;;;;40.70;99.90;;;;;;5361821;26;19929;-85
2024/04/08 08:54:37;;;;;;;;;;;41.40;99.90;;;;;;5364663;26;20301;-86
2024/04/08 08:57:04;;;;;;;;;;;41.20;99.90;;;;;;5359018;26;19995;-87
2024/04/08 08:59:30;;;;;;;;;;;40.80;99.90;;;;;;5361140;26;19930;-85
2024/04/08 09:01:59;;;;;;;;;;;40.70;99.90;;;;;;5358150;26;20371;-86
2024/04/08 09:04:26;;;;;;;;;;;41.10;99.90;;;;;;5360974;26;19974;-86
2024/04/08 09:06:53;;;;;;;;;;;41.30;99.90;;;;;;5367196;26;19962;-86
2024/04/08 09:09:18;;;;;;;;;;;41.10;99.90;;;;;;5370661;26;20263;-87
2024/04/08 09:11:45;;;;;;;;;;;41.10;99.90;;;;;;5366920;26;19930;-86
2024/04/08 09:14:10;;;;;;;;;;;40.70;99.90;;;;;;5361396;26;19930;-86
2024/04/08 09:16:35;;;;;;;;;;;40.20;99.90;;;;;;5386227;26;19936;-86
2024/04/08 09:19:02;;;;;;;;;;;40.00;99.90;;;;;;5372808;26;20653;-85
2024/04/08 09:21:28;;;;;;;;;;;39.80;99.90;;;;;;5362733;26;19929;-86
2024/04/08 09:24:03;;;;;;;;;;;40.00;99.90;;;;;;5367066;26;19941;-87
2024/04/08 09:26:29;;;;;;;;;;;40.40;99.90;;;;;;5365685;26;19980;-86
2024/04/08 09:28:54;;;;;;;;;;;40.00;99.90;;;;;;5357807;26;19942;-86
2024/04/08 09:31:20;;;;;;;;;;;39.40;99.90;;;;;;5362402;26;19930;-86
2024/04/08 09:33:46;;;;;;;;;;;38.90;99.90;;;;;;5354669;26;19981;-87
2024/04/08 09:36:12;;;;;;;;;;;38.30;99.90;;;;;;5353684;26;19940;-87
2024/04/08 09:38:38;;;;;;;;;;;38.20;99.90;;;;;;5359768;26;19937;-87
2024/04/08 09:41:04;;;;;;;;;;;38.00;99.90;;;;;;5370201;26;19929;-87
2024/04/08 09:43:30;;;;;;;;;;;37.90;99.90;;;;;;5420016;21;19956;-83
2024/04/08 09:45:57;;;;;;;;;;;38.20;99.90;;;;;;5418712;26;19933;-82
2024/04/08 09:48:23;;;;;;;;;;;38.10;99.90;;;;;;5416988;26;19993;-82
2024/04/08 09:50:50;;;;;;;;;;;37.90;99.90;;;;;;5416999;26;19929;-82
2024/04/08 09:53:15;;;;;;;;;;;37.80;99.90;;;;;;5418362;26;19971;-85
2024/04/08 09:55:44;;;;;;;;;;;37.40;99.90;;;;;;5430130;26;19945;-83
2024/04/08 09:58:10;;;;;;;;;;;36.70;99.90;;;;;;5430504;26;19929;-83
2024/04/08 10:00:36;;;;;;;;;;;36.50;99.90;;;;;;5418790;26;19929;-83
2024/04/08 10:03:04;;;;;;;;;;;36.30;99.90;;;;;;5420538;26;19928;-84
2024/04/08 10:05:30;;;;;;;;;;;36.20;99.90;;;;;;5416801;26;19933;-82
2024/04/08 10:07:56;;;;;;;;;;;36.00;99.90;;;;;;5415393;26;19999;-82
2024/04/08 10:10:21;;;;;;;;;;;35.70;99.90;;;;;;5424582;26;19929;-83
2024/04/08 10:12:48;;;;;;;;;;;35.40;99.90;;;;;;5418425;26;19974;-83
2024/04/08 10:15:14;;;;;;;;;;;35.00;99.90;;;;;;5404546;26;19936;-83
2024/04/08 10:17:43;;;;;;;;;;;34.60;99.90;;;;;;5424907;26;19937;-84
2024/04/08 10:20:12;;;;;;;;;;;34.40;99.90;;;;;;5429423;26;20442;-84
2024/04/08 10:22:38;;;;;;;;;;;34.10;99.90;;;;;;5424738;26;19942;-83
2024/04/08 10:25:04;;;;;;;;;;;34.10;99.90;;;;;;5412790;26;19940;-83
2024/04/08 10:27:33;;;;;;;;;;;34.00;99.90;;;;;;5416803;26;20005;-83
2024/04/08 10:29:59;;;;;;;;;;;34.00;99.90;;;;;;5415167;26;20355;-84
2024/04/08 10:32:25;;;;;;;;;;;34.40;99.90;;;;;;5426342;26;20008;-83
2024/04/08 10:34:53;;;;;;;;;;;34.50;99.90;;;;;;5428009;26;20396;-83
2024/04/08 10:37:19;;;;;;;;;;;34.80;99.90;;;;;;5427813;26;19937;-83
2024/04/08 10:39:44;;;;;;;;;;;34.40;99.90;;;;;;5425070;26;19982;-84
2024/04/08 10:42:14;;;;;;;;;;;33.40;99.90;;;;;;5423058;26;19929;-83
2024/04/08 10:44:40;;;;;;;;;;;31.80;99.90;;;;;;5428619;26;19929;-83
2024/04/08 10:47:09;;;;;;;;;;;30.30;99.90;;;;;;5405596;26;19989;-83
2024/04/08 10:49:40;;;;;;;;;;;30.00;99.90;;;;;;5422165;26;19944;-83
2024/04/08 10:52:05;;;;;;;;;;;31.20;99.90;;;;;;5430035;26;19936;-84
2024/04/08 10:54:31;;;;;;;;;;;32.80;99.90;;;;;;5430570;26;19932;-84
2024/04/08 10:56:56;;;;;;;;;;;33.90;99.90;;;;;;5430351;26;19931;-84
2024/04/08 10:59:22;;;;;;;;;;;34.40;99.90;;;;;;5430324;26;19961;-84
2024/04/08 11:01:48;;;;;;;;;;;33.90;99.90;;;;;;5431659;26;19929;-84
2024/04/08 11:04:13;;;;;;;;;;;33.60;99.90;;;;;;5425581;26;19929;-84
2024/04/08 11:06:39;;;;;;;;;;;32.80;99.90;;;;;;5400054;26;19941;-83
2024/04/08 11:09:05;;;;;;;;;;;31.80;99.90;;;;;;5456721;26;19931;-84
2024/04/08 11:11:31;;;;;;;;;;;30.60;99.90;;;;;;5426565;26;19936;-82
2024/04/08 11:13:56;;;;;;;;;;;30.60;99.90;;;;;;5424940;26;19929;-83
2024/04/08 11:16:22;;;;;;;;;;;30.70;99.90;;;;;;5424530;26;19944;-83
2024/04/08 11:18:48;;;;;;;;;;;31.30;99.90;;;;;;5422950;26;20398;-82
2024/04/08 11:21:13;;;;;;;;;;;31.30;99.90;;;;;;5420500;26;19935;-82
2024/04/08 11:23:41;;;;;;;;;;;31.10;99.90;;;;;;5412389;26;19929;-83
2024/04/08 11:26:10;;;;;;;;;;;30.50;99.90;;;;;;5420537;26;19940;-83
2024/04/08 11:28:38;;;;;;;;;;;29.80;99.90;;;;;;5422999;26;19936;-82
2024/04/08 11:31:05;;;;;;;;;;;29.20;99.90;;;;;;5415823;26;19936;-84
2024/04/08 11:33:31;;;;;;;;;;;28.80;99.90;;;;;;5423459;26;19929;-82
2024/04/08 11:35:57;;;;;;;;;;;28.40;99.90;;;;;;5424751;26;19935;-82
2024/04/08 11:38:23;;;;;;;;;;;27.70;99.90;;;;;;5423214;26;20389;-82
2024/04/08 11:40:48;;;;;;;;;;;27.20;99.90;;;;;;5417700;26;19936;-83
2024/04/08 11:43:14;;;;;;;;;;;26.80;99.90;;;;;;5429731;26;19936;-82
2024/04/08 11:45:40;;;;;;;;;;;26.70;99.90;;;;;;5431265;26;19936;-83
2024/04/08 11:48:06;;;;;;;;;;;26.70;99.90;;;;;;5422457;26;19929;-83
2024/04/08 11:50:31;;;;;;;;;;;26.40;99.90;;;;;;5427371;26;19932;-84
2024/04/08 11:52:57;;;;;;;;;;;26.20;99.90;;;;;;5431637;26;19936;-84
2024/04/08 11:55:22;;;;;;;;;;;26.00;99.90;;;;;;5434169;26;19936;-84
2024/04/08 11:57:48;;;;;;;;;;;25.60;99.90;;;;;;5435642;26;19929;-85
2024/04/08 12:00:19;;;;;;;;;;;25.50;99.90;;;;;;5430329;26;20007;-83
2024/04/08 12:02:45;;;;;;;;;;;25.40;99.90;;;;;;5435169;26;19929;-84
2024/04/08 12:05:11;;;;;;;;;;;;;;;;;;5435663;26;19975;-83
2024/04/08 12:07:36;;;;;;;;;;;24.50;99.90;;;;;;5427268;26;19929;-83
2024/04/08 12:10:03;;;;;;;;;;;24.20;99.90;;;;;;5434238;26;20518;-85
2024/04/08 12:12:29;;;;;;;;;;;24.00;99.90;;;;;;5433146;26;19932;-82
2024/04/08 12:14:54;;;;;;;;;;;23.90;99.90;;;;;;5435962;26;19940;-83
2024/04/08 12:17:20;;;;;;;;;;;23.80;99.90;;;;;;5434403;26;19932;-83
2024/04/08 12:19:47;;;;;;;;;;;23.50;99.90;;;;;;5434795;26;19940;-84
2024/04/08 12:24:42;;;;;;;;;;;23.30;99.90;;;;;;5418912;26;19945;-83
2024/04/08 12:27:08;;;;;;;;;;;23.10;99.90;;;;;;5431652;26;19936;-83
2024/04/08 12:29:34;;;;;;;;;;;23.00;99.90;;;;;;5439175;26;19928;-84
2024/04/08 12:31:59;;;;;;;;;;;22.70;99.90;;;;;;5400206;26;19929;-84
2024/04/08 12:34:25;;;;;;;;;;;22.50;99.90;;;;;;5415755;26;19936;-83
2024/04/08 12:36:51;;;;;;;;;;;22.50;99.90;;;;;;5423140;26;20485;-83
2024/04/08 12:39:16;;;;;;;;;;;22.40;99.90;;;;;;5409377;26;19937;-83
2024/04/08 12:41:42;;;;;;;;;;;22.60;99.90;;;;;;5401048;26;19961;-83
2024/04/08 12:44:09;;;;;;;;;;;22.70;99.90;;;;;;5403571;26;20300;-83
2024/04/08 12:46:34;;;;;;;;;;;22.90;99.90;;;;;;5400878;26;19972;-83
2024/04/08 12:49:00;;;;;;;;;;;22.80;99.90;;;;;;5391445;26;19962;-83
2024/04/08 12:51:25;;;;;;;;;;;22.70;99.90;;;;;;5413063;26;20746;-82
2024/04/08 12:53:51;;;;;;;;;;;22.70;99.90;;;;;;5384049;26;20297;-84
2024/04/08 12:56:16;;;;;;;;;;;22.70;99.90;;;;;;5418517;26;19944;-83
2024/04/08 12:58:42;;;;;;;;;;;22.60;99.90;;;;;;5370310;26;19929;-82
2024/04/08 13:01:08;;;;;;;;;;;22.50;99.90;;;;;;5414426;26;19929;-83
2024/04/08 13:03:34;;;;;;;;;;;22.40;99.90;;;;;;5403512;26;19950;-83
2024/04/08 13:05:59;;;;;;;;;;;22.20;1.00;;;;;;5412605;26;19940;-84
2024/04/08 13:08:25;;;;;;;;;;;22.20;1.00;;;;;;5420247;26;19928;-83
2024/04/08 13:10:50;;;;;;;;;;;22.20;1.00;;;;;;5400853;26;19958;-83
2024/04/08 13:13:15;;;;;;;;;;;22.10;1.00;;;;;;5410741;26;20383;-84
2024/04/08 13:15:41;;;;;;;;;;;21.90;1.00;;;;;;5368121;26;19933;-83
2024/04/08 13:18:07;;;;;;;;;;;21.80;1.00;;;;;;5400568;26;19945;-83
2024/04/08 13:20:32;;;;;;;;;;;21.70;1.00;;;;;;5410280;26;19929;-83
2024/04/08 13:22:57;;;;;;;;;;;21.70;1.00;;;;;;5414699;26;19936;-82
2024/04/08 13:25:23;;;;;;;;;;;21.80;1.00;;;;;;5403602;26;19979;-85
2024/04/08 13:27:49;;;;;;;;;;;21.70;1.00;;;;;;5369013;26;19929;-84
2024/04/08 13:30:14;;;;;;;;;;;21.70;1.00;;;;;;5410088;26;19929;-84
2024/04/08 13:32:40;;;;;;;;;;;21.50;1.00;;;;;;5420803;26;20051;-85
2024/04/08 13:35:06;;;;;;;;;;;21.50;37.60;;;;;;5396757;26;19929;-83
2024/04/08 13:37:32;;;;;;;;;;;21.40;86.90;;;;;;5412183;26;19929;-84
2024/04/08 13:39:57;;;;;;;;;;;21.30;91.40;;;;;;5417661;26;19936;-84
2024/04/08 13:42:23;;;;;;;;;;;21.30;99.90;;;;;;5400455;26;20346;-85
2024/04/08 13:44:54;;;;;;;;;;;21.30;99.90;;;;;;5394535;26;19961;-83
2024/04/08 13:47:19;;;;;;;;;;;21.40;99.90;;;;;;5382967;26;19933;-83
2024/04/08 13:49:45;;;;;;;;;;;21.70;99.90;;;;;;5407407;26;19941;-83
2024/04/08 13:52:11;;;;;;;;;;;22.00;91.40;;;;;;5413053;26;20360;-84
2024/04/08 13:54:36;;;;;;;;;;;22.10;27.80;;;;;;5376968;26;19930;-82
2024/04/08 13:57:02;;;;;;;;;;;22.30;10.80;;;;;;5414137;26;20090;-83
2024/04/08 13:59:27;;;;;;;;;;;22.70;1.00;;;;;;5411020;26;20436;-83
2024/04/08 14:01:53;;;;;;;;;;;23.20;1.00;;;;;;5397373;26;19941;-83
2024/04/08 14:04:18;;;;;;;;;;;23.70;1.00;;;;;;5422665;26;19961;-85
2024/04/08 14:06:44;;;;;;;;;;;24.00;1.00;;;;;;5409970;26;19976;-83
2024/04/08 14:09:11;;;;;;;;;;;24.20;1.00;;;;;;5412101;26;19951;-84
2024/04/08 14:11:37;;;;;;;;;;;24.20;1.00;;;;;;5414185;26;20422;-83
2024/04/08 14:14:02;;;;;;;;;;;24.10;1.00;;;;;;5418472;26;19936;-83
2024/04/08 14:16:28;;;;;;;;;;;24.40;1.00;;;;;;5404959;26;20423;-83
2024/04/08 14:18:55;;;;;;;;;;;24.60;99.90;;;;;;5401221;26;19936;-82